Weather Top, Arizona (BMGR) Weather observations

Data are for 10 minute period ending at time listed.
 Day   Time   Solar   Ave.   Ave.  Ave.  Vector  Max.   Total    
  of    of     Rad.   Air    Rel.  Wind   Wind   Wind  Precip.   
Year   Day            Temp.  Hum.  Speed  Dir.   Gust            
2026   (MST)  Kw/m2    F      %     mph   deg.    mph    in.     
-----------------------------------------------------------------
 243   10:35   0.77   75.4    75   11.4   112    17.2    0.00 
 243   10:40   0.36   75.2    75   12.5   101    17.2    0.00 
 243   10:45   0.33   75.1    72   13.9    97    21.1    0.00 
 243   10:50   0.34   74.9    71   15.3   107    20.0    0.00 
 243   10:55   0.88   75.3    71   14.9   104    21.6    0.00 
 243   11:00   0.40   75.5    70   14.4   107    19.4    0.00 
 243   11:05   0.73   75.8    69   14.2   108    22.2    0.00 
 243   11:10   0.89   76.8    68   12.3   102    19.4    0.00 
 243   11:15   0.84   76.5    69   13.3    94    19.4    0.00 
 243   11:20   0.83   76.3    69   13.6    94    20.0    0.00 
 243   11:25   0.84   76.8    69   12.5    98    24.4    0.00 
 243   11:30   0.85   76.7    68   14.3   113    21.1    0.00 
 243   11:35   0.87   76.4    68   15.6   115    22.2    0.00 
 243   11:40   0.88   76.6    68   14.9   110    21.6    0.00 
 243   11:45   0.87   77.4    67   13.5   112    20.0    0.00 
 243   11:50   0.86   77.2    68   15.2   108    21.6    0.00 
 243   11:55   0.85   77.3    68   14.8   112    22.8    0.00 
 243   12:00   0.85   77.2    67   14.1   109    21.6    0.00 
 243   12:05   0.85   77.3    67   14.7   104    21.6    0.00 
 243   12:10   0.85   77.3    66   14.9   108    25.0    0.00 
 243   12:15   0.85   77.6    66   13.3   100    20.5    0.00 
 243   12:20   0.86   78.2    65   12.5   102    22.2    0.00 
 243   12:25   0.86   78.8    64    9.2   112    14.4    0.00 
 243   12:30   0.85   78.8    64   11.2   110    16.0    0.00 
 243   12:35   0.85   78.4    64   12.4   105    18.3    0.00 
 243   12:40   0.85   78.9    63   12.7   110    21.1    0.00 
 243   12:45   0.85   78.9    63   13.2   112    19.4    0.00 
 243   12:50   0.85   79.1    62   15.0   110    24.4    0.00 
 243   12:55   0.85   79.0    62   15.2   106    22.2    0.00 
 243   13:00   0.85   79.7    61   13.9    99    26.1    0.00 
 243   13:05   0.84   80.0    60   13.8   104    22.2    0.00 
 243   13:10   0.84   79.5    60   15.1   101    24.4    0.00 
 243   13:15   0.84   79.9    59   13.2   102    21.6    0.00 
 243   13:20   0.83   79.7    58   14.2   115    22.8    0.00 
 243   13:25   0.83   79.6    57   14.2   121    23.3    0.00 
 243   13:30   0.83   79.8    57   15.5   126    23.3    0.00 
 243   13:35   0.82   79.7    58   15.0   121    22.2    0.00 
 243   13:40   0.81   79.5    59   15.3   117    25.0    0.00 
 243   13:45   0.81   80.2    57   12.5   119    17.7    0.00 
 243   13:50   0.80   80.4    56   13.4   119    20.0    0.00 
 243   13:55   0.80   80.6    57   13.4   123    20.0    0.00 
 243   14:00   0.79   81.0    56   12.2   127    21.1    0.00 
 243   14:05   0.78   80.9    55   13.7   122    21.6    0.00 
 243   14:10   0.77   81.5    54   10.6   119    16.6    0.00 
 243   14:15   0.77   81.6    53   11.6   122    18.9    0.00 
 243   14:20   0.76   81.8    54   11.7   117    19.4    0.00 
 243   14:25   0.75   81.8    53   13.1   124    20.5    0.00 
 243   14:30   0.75   82.1    52   11.0   122    17.2    0.00 
 243   14:35   0.74   82.2    52   10.8   128    16.6    0.00 
 243   14:40   0.73   82.3    52   11.2   121    20.5    0.00 
 243   14:45   0.72   83.0    51    8.9   123    13.3    0.00 
 243   14:50   0.71   83.3    51    9.6   117    15.5    0.00 
 243   14:55   0.69   82.9    51   10.9   118    15.5    0.00 
 243   15:00   0.63   83.0    52   10.1   104    15.5    0.00 
 243   15:05   0.67   83.4    52    9.7   116    13.3    0.00 
 243   15:10   0.65   83.3    52   10.7   116    15.5    0.00 
 243   15:15   0.63   83.4    51   10.9   121    15.5    0.00 
 243   15:20   0.62   83.5    50   11.0   120    16.6    0.00 
 243   15:25   0.61   83.6    52    9.4   123    14.9    0.00 
 243   15:30   0.60   84.1    50    9.7   110    14.9    0.00 
 243   15:35   0.59   83.8    50   10.6   106    16.0    0.00 
 243   15:40   0.58   84.2    49    8.3   108    12.7    0.00 
 243   15:45   0.57   84.5    48    8.6   117    12.7    0.00 
 243   15:50   0.55   84.8    48    8.3   115    13.8    0.00 
 243   15:55   0.54   85.0    46    8.1   123    12.1    0.00 
 243   16:00   0.54   85.2    45    8.8   124    13.3    0.00 
 243   16:05   0.52   85.1    45    7.1   105    11.0    0.00 
 243   16:10   0.30   85.0    46    6.2   114    10.5    0.00 
 243   16:15   0.34   84.8    45    7.3   109    11.6    0.00 
 243   16:20   0.20   84.5    45    8.2   116    12.1    0.00 
 243   16:25   0.15   84.2    46    7.8   120    11.0    0.00 
 243   16:30   0.14   84.0    46    9.1   117    14.4    0.00 
 243   16:35   0.14   83.6    47   10.0   112    13.8    0.00 
 243   16:40   0.14   83.4    49    9.8   117    16.0    0.00 
 243   16:45   0.15   83.4    49    8.7   123    12.7    0.00 
 243   16:50   0.15   83.4    48    9.3   119    13.8    0.00 
 243   16:55   0.15   83.3    49    7.2   109    12.1    0.00 
 243   17:00   0.14   83.4    49    7.0   100    10.5    0.00 
 243   17:05   0.12   83.3    49    8.7   114    14.4    0.00 
 243   17:10   0.11   83.0    49   10.5   126    14.9    0.00 
 243   17:15   0.08   82.9    50    9.8   113    14.4    0.00 
 243   17:20   0.07   82.7    51    9.8   116    14.9    0.00 
 243   17:25   0.08   82.5    52    7.6   113    11.0    0.00 
 243   17:30   0.07   82.6    52    6.8    92    12.1    0.00 
 243   17:35   0.08   82.4    52    7.8    96    12.7    0.00 
 243   17:40   0.13   82.5    52    6.3   100    12.1    0.00 
 243   17:45   0.25   83.0    52    4.6   115     9.3    0.00 
 243   17:50   0.22   83.2    51    5.5   123     8.8    0.00 
 243   17:55   0.24   83.5    50    5.1   134     8.2    0.00 
 243   18:00   0.22   83.4    50    7.1   121    11.6    0.00 
 243   18:05   0.19   83.4    50    6.5   126     9.9    0.00 
 243   18:10   0.15   82.7    50    7.7   116     9.9    0.00 
 243   18:15   0.06   82.4    51    7.6   115    11.0    0.00 
 243   18:20   0.04   82.1    52    8.5   114    12.1    0.00 
 243   18:25   0.03   82.0    52    8.3   117    12.7    0.00 
 243   18:30   0.05   81.9    52    8.0   115    12.7    0.00 
 243   18:35   0.05   81.6    52    8.0   113    11.0    0.00 
 243   18:40   0.04   81.4    52    5.8    93    10.5    0.00 
 243   18:45   0.03   81.0    53    6.1   105     8.8    0.00 
 243   18:50   0.01   80.8    54    5.7   105     7.7    0.00 
 243   18:55   0.01   80.7    54    6.5    99     8.8    0.00 
 243   19:00   0.01   80.7    54    7.9   106    10.5    0.00 
 243   19:05   0.00   80.7    54    8.3   111    11.6    0.00 
 243   19:10   0.00   80.6    54    9.0   112    13.3    0.00 
 243   19:15   0.00   80.5    54    7.9   104    11.6    0.00 
 243   19:20   0.00   80.3    55    7.0   104    10.5    0.00 
 243   19:25   0.00   80.3    55    5.7   104     9.3    0.00 
 243   19:30   0.00   80.3    55    6.7    98     9.3    0.00 
 243   19:35   0.00   80.2    56    6.7   103    10.5    0.00 
 243   19:40   0.00   80.3    55    5.7   112     9.3    0.00 
 243   19:45   0.00   80.3    55    4.6   102     7.1    0.00 
 243   19:50   0.00   80.3    56    5.6    91     8.8    0.00 
 243   19:55   0.00   80.3    56    5.8   110     8.2    0.00 
 243   20:00   0.00   80.3    56    6.4   119     8.2    0.00 
 243   20:05   0.00   80.1    56    6.2   117    10.5    0.00 
 243   20:10   0.00   79.8    57    7.5   120     9.9    0.00 
 243   20:15   0.00   79.7    57    9.4   119    13.3    0.00 
 243   20:20   0.00   79.5    58   10.7   114    16.6    0.00 
 243   20:25   0.00   79.2    60    8.9   116    13.3    0.00 
 243   20:30   0.00   78.9    60    9.6   109    12.7    0.00 
 243   20:35   0.00   78.9    60   10.9   112    13.8    0.00 
 243   20:40   0.00   78.8    60   10.8   110    13.8    0.00 
 243   20:45   0.00   78.6    61   10.2   112    13.8    0.00 
 243   20:50   0.00   78.5    61    9.6   109    12.7    0.00 
 243   20:55   0.00   78.8    60    9.1   110    12.7    0.00 
 243   21:00   0.00   79.0    59    9.3   111    13.3    0.00 
 243   21:05   0.00   78.7    60    8.8   104    13.3    0.00 
 243   21:10   0.00   78.5    60   10.4   108    14.9    0.00 
 243   21:15   0.00   78.6    59   11.4   116    16.0    0.00 
 243   21:20   0.00   78.2    60   10.8   120    14.4    0.00 
 243   21:25   0.00   78.1    60   10.0   117    14.4    0.00 
 243   21:30   0.00   78.0    60   10.2   120    14.4    0.00 
 243   21:35   0.00   78.0    61   10.1   123    13.3    0.00 
 243   21:40   0.00   77.8    62   10.5   121    16.6    0.00 
 243   21:45   0.00   77.6    62   10.6   119    14.4    0.00 
 243   21:50   0.00   77.7    62   10.7   123    15.5    0.00 
 243   21:55   0.00   77.9    61   10.2   124    15.5    0.00 
 243   22:00   0.00   78.0    61   10.4   122    14.9    0.00 
 243   22:05   0.00   78.4    59   12.2   120    18.9    0.00 
 243   22:10   0.00   78.6    59   10.5   121    15.5    0.00 
 243   22:15   0.00   78.5    59   10.4   127    16.0    0.00 
 243   22:20   0.00   78.5    59   10.8   119    16.6    0.00 
 243   22:25   0.00   78.4    59   10.3   118    15.5    0.00 
 243   22:30   0.00   78.8    58   11.0   116    17.7    0.00 
 243   22:35   0.00   78.5    59    9.8   110    14.4    0.00 
 243   22:40   0.00   78.2    60   10.5   120    14.9    0.00 
 243   22:45   0.00   78.3    59   11.4   120    16.0    0.00 
 243   22:50   0.00   78.4    58   13.5   121    22.2    0.00 
 243   22:55   0.00   78.4    58   13.5   124    18.3    0.00 
 243   23:00   0.00   78.2    59   13.3   122    17.7    0.00 
 243   23:05   0.00   77.7    61   12.9   123    18.3    0.00 
 243   23:10   0.00   77.3    62   10.9   127    17.2    0.00 
 243   23:15   0.00   77.3    62   12.0   125    18.9    0.00 
 243   23:20   0.00   77.1    63   10.8   126    16.0    0.00 
 243   23:25   0.00   76.9    64   12.2   122    18.3    0.00 
 243   23:30   0.00   76.8    64   10.6   123    17.2    0.00 
 243   23:35   0.00   76.7    65   11.0   124    14.4    0.00 
 243   23:40   0.00   76.4    66   11.6   124    15.5    0.00 
 243   23:45   0.00   76.3    66   12.0   119    17.7    0.00 
 243   23:50   0.00   76.3    66   12.6   115    16.6    0.00 
 243   23:55   0.00   76.5    66   13.3   120    18.3    0.00 
 244    0:00   0.00   76.4    67   12.6   117    16.6    0.00 
 244    0:05   0.00   76.4    67   12.4   116    16.6    0.00 
 244    0:10   0.00   76.3    67   11.9   118    16.6    0.00 
 244    0:15   0.00   76.3    67   11.0   115    17.2    0.00 
 244    0:20   0.00   76.2    67   10.1   114    15.5    0.00 
 244    0:25   0.00   76.1    67    9.4   116    12.7    0.00 
 244    0:30   0.00   76.0    68    9.6   114    14.4    0.00 
 244    0:35   0.00   76.0    68   10.5   114    14.4    0.00 
 244    0:40   0.00   76.1    69   10.1   113    15.5    0.00 
 244    0:45   0.00   76.1    69    8.9   111    12.1    0.00 
 244    0:50   0.00   76.0    68    9.0   107    12.1    0.00 
 244    0:55   0.00   76.2    68    8.7   109    11.0    0.00 
 244    1:00   0.00   76.4    68    8.2   113    11.0    0.00 
 244    1:05   0.00   76.6    67    8.2   116    10.5    0.00 
 244    1:10   0.00   76.6    67    8.0   109    10.5    0.00 
 244    1:15   0.00   76.4    68    8.3   109    11.6    0.00 
 244    1:20   0.00   76.4    68    7.7   115     9.9    0.00 
 244    1:25   0.00   76.4    68    7.5   128    11.0    0.00 
 244    1:30   0.00   76.1    69    6.7   132     9.3    0.00 
 244    1:35   0.00   75.5    70    6.8   126     9.9    0.00 
 244    1:40   0.00   75.1    71    7.8   119    10.5    0.00 
 244    1:45   0.00   74.8    72    7.4   114     9.9    0.00 
 244    1:50   0.00   74.8    72    7.6   117     9.9    0.00 
 244    1:55   0.00   74.7    73    7.5   119     9.9    0.00 
 244    2:00   0.00   74.8    73    8.2   118     9.9    0.00 
 244    2:05   0.00   74.7    74    8.5   120    11.6    0.00 
 244    2:10   0.00   74.5    74    7.5   123     9.3    0.00 
 244    2:15   0.00   74.4    75    7.6   122     9.9    0.00 
 244    2:20   0.00   74.3    75    6.4   121     8.8    0.00 
 244    2:25   0.00   74.2    75    6.1   122     7.7    0.00 
 244    2:30   0.00   74.3    75    6.5   121     8.2    0.00 
 244    2:35   0.00   74.2    74    6.2   129     8.2    0.00 
 244    2:40   0.00   74.2    74    6.2   123     8.2    0.00 
 244    2:45   0.00   74.2    74    6.0   122     8.2    0.00 
 244    2:50   0.00   74.4    73    6.3   121     7.7    0.00 
 244    2:55   0.00   74.4    73    6.3   117     8.2    0.00 
 244    3:00   0.00   74.8    71    6.9   120     8.8    0.00 
 244    3:05   0.00   74.8    71    6.3   118     8.2    0.00 
 244    3:10   0.00   74.7    71    6.1   124     8.8    0.00 
 244    3:15   0.00   74.5    72    5.2   143     7.7    0.00 
 244    3:20   0.00   74.4    73    4.4   139     6.5    0.00 
 244    3:25   0.00   74.0    74    4.1   133     6.5    0.00 
 244    3:30   0.00   73.9    74    4.5   128     6.5    0.00 
 244    3:35   0.00   74.1    73    5.4   126     8.2    0.00 
 244    3:40   0.00   74.1    73    4.9   124     8.2    0.00 
 244    3:45   0.00   74.3    72    4.1   137     6.0    0.00 
 244    3:50   0.00   74.2    72    4.1   130     6.0    0.00 
 244    3:55   0.00   74.3    72    3.9   125     6.0    0.00 
 244    4:00   0.00   74.4    71    3.6   129     5.4    0.00 
 244    4:05   0.00   74.5    70    2.7   142     4.3    0.00 
 244    4:10   0.00   74.7    70    3.2   137     4.9    0.00 
 244    4:15   0.00   74.7    69    2.9   134     4.9    0.00 
 244    4:20   0.00   74.8    69    2.8   136     4.3    0.00 
 244    4:25   0.00   74.9    68    3.2   160     4.9    0.00 
 244    4:30   0.00   74.8    69    3.4   165     4.9    0.00 
 244    4:35   0.00   74.4    70    3.9   148     5.4    0.00 
 244    4:40   0.00   73.9    72    3.5   131     5.4    0.00 
 244    4:45   0.00   74.0    71    4.0   128     6.0    0.00 
 244    4:50   0.00   74.4    69    3.9   129     7.1    0.00 
 244    4:55   0.00   74.6    69    2.9   140     4.9    0.00 
 244    5:00   0.00   74.6    68    3.6   170     5.4    0.00 
 244    5:05   0.00   75.1    66    3.2   183     6.0    0.00 
 244    5:10   0.00   75.1    66    3.3   183     4.3    0.00 
 244    5:15   0.00   74.8    67    3.3   178     4.9    0.00 
 244    5:20   0.00   74.4    69    3.1   164     4.3    0.00 
 244    5:25   0.00   74.4    68    3.5   175     5.4    0.00 
 244    5:30   0.00   74.9    67    3.5   180     4.9    0.00 
 244    5:35   0.00   74.8    67    3.2   173     4.9    0.00 
 244    5:40   0.00   74.7    67    2.8   168     4.9    0.00 
 244    5:45   0.00   74.7    67    2.1   162     3.2    0.00 
 244    5:50   0.00   75.1    65    2.8   176     4.3    0.00 
 244    5:55   0.00   75.6    64    2.5   171     3.8    0.00 
 244    6:00   0.00   76.0    62    3.1   192     4.9    0.00 
 244    6:05   0.00   76.6    61    4.5   203     7.1    0.00 
 244    6:10   0.01   76.8    61    4.8   203     6.5    0.00 
 244    6:15   0.01   76.7    62    4.5   201     6.5    0.00 
 244    6:20   0.02   76.9    62    4.8   196     7.1    0.00 
 244    6:25   0.03   76.6    63    2.9   172     7.1    0.00 
 244    6:30   0.04   76.0    64    3.1   140     5.4    0.00 
 244    6:35   0.06   76.0    64    3.8   127     6.0    0.00 
 244    6:40   0.07   76.3    63    5.2   116     7.1    0.00 
 244    6:45   0.08   76.6    63    5.8   113     7.1    0.00 
 244    6:50   0.09   76.7    63    4.7   112     7.1    0.00 
 244    6:55   0.11   76.5    64    4.9    97     6.5    0.00 
 244    7:00   0.13   75.8    68    5.2    88     7.7    0.00 
 244    7:05   0.14   75.1    70    5.9    96     8.2    0.00 
 244    7:10   0.16   75.3    70    5.9    97     7.7    0.00 
 244    7:15   0.17   75.3    70    5.6    95     7.7    0.00 
 244    7:20   0.19   75.5    68    6.1    96     7.7    0.00 
 244    7:25   0.20   75.5    69    6.2   100     7.7    0.00 
 244    7:30   0.22   75.8    68    6.6   100     8.2    0.00 
 244    7:35   0.24   76.0    67    7.4   105     9.9    0.00 
 244    7:40   0.25   76.2    65    7.9    98     9.9    0.00 
 244    7:45   0.27   76.7    64    7.6    99    10.5    0.00 
 244    7:50   0.29   77.3    62    6.5    98     9.9    0.00 
 244    7:55   0.31   77.5    61    6.7    95     9.9    0.00 
 244    8:00   0.32   77.6    61    7.3    92    11.6    0.00 
 244    8:05   0.34   77.7    61    6.5    94    10.5    0.00 
 244    8:10   0.36   77.9    60    6.3   108    10.5    0.00 
 244    8:15   0.37   77.9    60    6.8   114    10.5    0.00 
 244    8:20   0.39   78.1    60    6.4   113     9.9    0.00 
 244    8:25   0.41   78.4    59    6.3   110     9.3    0.00 
 244    8:30   0.42   78.5    58    6.3   115    10.5    0.00 
 244    8:35   0.44   78.4    58    6.5   120    10.5    0.00 
 244    8:40   0.46   78.7    59    6.4   120     9.9    0.00 
 244    8:45   0.47   78.8    59    6.2    98     8.8    0.00 
 244    8:50   0.49   79.0    58    6.4   122    10.5    0.00 
 244    8:55   0.50   79.1    58    6.6   120     9.3    0.00 
 244    9:00   0.52   79.2    56    7.1   116    10.5    0.00 
 244    9:05   0.54   79.7    55    6.7   111    12.1    0.00 
 244    9:10   0.55   79.9    54    7.3   121    12.1    0.00 
 244    9:15   0.57   80.0    54    7.0   108    10.5    0.00 
 244    9:20   0.58   80.3    54    7.1   119     9.9    0.00 
 244    9:25   0.59   80.4    54    7.7   125     9.9    0.00 
 244    9:30   0.61   80.6    54    7.1   119     9.9    0.00 
 244    9:35   0.62   81.3    54    6.1   107     9.9    0.00 
 244    9:40   0.63   81.9    52    5.5   111     8.2    0.00 
 244    9:45   0.65   82.3    52    5.5   128     9.9    0.00 
 244    9:50   0.66   82.3    51    6.0   122     8.8    0.00 
 244    9:55   0.67   82.2    50    6.2   137     9.3    0.00 
 244   10:00   0.69   82.9    49    5.0   101     7.1    0.00 
 244   10:05   0.70   82.5    50    5.4   116     9.3    0.00 
 244   10:10   0.71   83.2    50    5.6   117     9.3    0.00 
 244   10:15   0.72   83.4    49    5.6   103     8.8    0.00 
 244   10:20   0.73   83.2    49    5.6   113     9.3    0.00 
 244   10:25   0.74   83.8    48    5.5   110     8.8    0.00 
 244   10:30   0.75   84.4    48    5.2   100     8.2    0.00 

Return to Weather Top graphs page.


Western Regional Climate Center,wrcc@dri.edu